sensor_id;sensor_type;location;lat;lon;timestamp;P1;durP1;ratioP1;P2;durP2;ratioP2
5833;SDS011;2943;48.012;10.968;2023-01-15T00:01:21;1.73;;;1.40;;
5833;SDS011;2943;48.012;10.968;2023-01-15T00:03:50;1.20;;;1.10;;
5833;SDS011;2943;48.012;10.968;2023-01-15T00:06:18;1.23;;;1.13;;
5833;SDS011;2943;48.012;10.968;2023-01-15T00:08:45;1.40;;;1.30;;
5833;SDS011;2943;48.012;10.968;2023-01-15T00:11:13;2.40;;;1.50;;
5833;SDS011;2943;48.012;10.968;2023-01-15T00:13:40;1.93;;;1.40;;
5833;SDS011;2943;48.012;10.968;2023-01-15T00:16:08;2.60;;;1.30;;
5833;SDS011;2943;48.012;10.968;2023-01-15T00:18:38;1.50;;;1.40;;
5833;SDS011;2943;48.012;10.968;2023-01-15T00:21:06;2.63;;;1.20;;
5833;SDS011;2943;48.012;10.968;2023-01-15T00:23:34;1.50;;;1.40;;
5833;SDS011;2943;48.012;10.968;2023-01-15T00:26:20;1.40;;;1.30;;
5833;SDS011;2943;48.012;10.968;2023-01-15T00:29:05;1.50;;;1.40;;
5833;SDS011;2943;48.012;10.968;2023-01-15T00:31:33;1.27;;;1.17;;
5833;SDS011;2943;48.012;10.968;2023-01-15T00:34:02;2.23;;;1.20;;
5833;SDS011;2943;48.012;10.968;2023-01-15T00:36:29;1.67;;;1.43;;
5833;SDS011;2943;48.012;10.968;2023-01-15T00:38:57;1.20;;;1.10;;
5833;SDS011;2943;48.012;10.968;2023-01-15T00:41:25;1.20;;;1.10;;
5833;SDS011;2943;48.012;10.968;2023-01-15T00:43:52;1.50;;;1.40;;
5833;SDS011;2943;48.012;10.968;2023-01-15T00:46:21;1.70;;;1.60;;
5833;SDS011;2943;48.012;10.968;2023-01-15T00:48:47;4.23;;;2.53;;
5833;SDS011;2943;48.012;10.968;2023-01-15T00:51:16;3.87;;;2.73;;
5833;SDS011;2943;48.012;10.968;2023-01-15T00:53:42;3.00;;;2.20;;
5833;SDS011;2943;48.012;10.968;2023-01-15T00:56:09;4.30;;;2.57;;
5833;SDS011;2943;48.012;10.968;2023-01-15T00:58:36;2.67;;;2.33;;
5833;SDS011;2943;48.012;10.968;2023-01-15T01:01:03;2.73;;;2.10;;
5833;SDS011;2943;48.012;10.968;2023-01-15T01:03:30;2.00;;;1.90;;
5833;SDS011;2943;48.012;10.968;2023-01-15T01:05:58;2.07;;;1.57;;
5833;SDS011;2943;48.012;10.968;2023-01-15T01:08:28;3.43;;;2.03;;
5833;SDS011;2943;48.012;10.968;2023-01-15T01:11:02;2.90;;;2.60;;
5833;SDS011;2943;48.012;10.968;2023-01-15T01:13:33;2.60;;;2.40;;
5833;SDS011;2943;48.012;10.968;2023-01-15T01:16:00;3.20;;;2.67;;
5833;SDS011;2943;48.012;10.968;2023-01-15T01:18:28;3.43;;;2.50;;
5833;SDS011;2943;48.012;10.968;2023-01-15T01:20:55;3.30;;;2.40;;
5833;SDS011;2943;48.012;10.968;2023-01-15T01:23:22;5.97;;;2.63;;
5833;SDS011;2943;48.012;10.968;2023-01-15T01:25:51;2.13;;;1.90;;
5833;SDS011;2943;48.012;10.968;2023-01-15T01:28:18;2.30;;;2.10;;
5833;SDS011;2943;48.012;10.968;2023-01-15T01:30:44;5.63;;;3.23;;
5833;SDS011;2943;48.012;10.968;2023-01-15T01:33:11;5.40;;;3.70;;
5833;SDS011;2943;48.012;10.968;2023-01-15T01:35:38;3.00;;;2.60;;
5833;SDS011;2943;48.012;10.968;2023-01-15T01:38:12;2.57;;;2.37;;
5833;SDS011;2943;48.012;10.968;2023-01-15T01:40:39;4.10;;;2.17;;
5833;SDS011;2943;48.012;10.968;2023-01-15T01:43:09;4.17;;;2.77;;
5833;SDS011;2943;48.012;10.968;2023-01-15T01:45:44;3.23;;;2.40;;
5833;SDS011;2943;48.012;10.968;2023-01-15T01:48:11;2.90;;;2.40;;
5833;SDS011;2943;48.012;10.968;2023-01-15T01:50:41;4.13;;;2.50;;
5833;SDS011;2943;48.012;10.968;2023-01-15T01:53:10;1.93;;;1.77;;
5833;SDS011;2943;48.012;10.968;2023-01-15T01:55:41;1.97;;;1.87;;
5833;SDS011;2943;48.012;10.968;2023-01-15T01:58:09;1.90;;;1.53;;
5833;SDS011;2943;48.012;10.968;2023-01-15T02:00:38;2.30;;;1.40;;
5833;SDS011;2943;48.012;10.968;2023-01-15T02:03:09;1.60;;;1.40;;
5833;SDS011;2943;48.012;10.968;2023-01-15T02:05:37;1.60;;;1.30;;
5833;SDS011;2943;48.012;10.968;2023-01-15T02:08:07;3.60;;;1.50;;
5833;SDS011;2943;48.012;10.968;2023-01-15T02:10:34;2.40;;;1.43;;
5833;SDS011;2943;48.012;10.968;2023-01-15T02:13:03;1.87;;;1.50;;
5833;SDS011;2943;48.012;10.968;2023-01-15T02:15:37;1.37;;;1.27;;
5833;SDS011;2943;48.012;10.968;2023-01-15T02:18:10;2.00;;;1.60;;
5833;SDS011;2943;48.012;10.968;2023-01-15T02:20:43;2.23;;;1.50;;
5833;SDS011;2943;48.012;10.968;2023-01-15T02:29:28;3.23;;;1.73;;
5833;SDS011;2943;48.012;10.968;2023-01-15T02:32:00;2.10;;;1.47;;
5833;SDS011;2943;48.012;10.968;2023-01-15T02:34:30;2.50;;;1.50;;
5833;SDS011;2943;48.012;10.968;2023-01-15T02:37:01;1.27;;;1.17;;
5833;SDS011;2943;48.012;10.968;2023-01-15T02:39:31;1.30;;;1.20;;
5833;SDS011;2943;48.012;10.968;2023-01-15T02:42:01;1.30;;;1.20;;
5833;SDS011;2943;48.012;10.968;2023-01-15T02:44:34;1.40;;;1.30;;
5833;SDS011;2943;48.012;10.968;2023-01-15T02:47:04;1.10;;;1.00;;
5833;SDS011;2943;48.012;10.968;2023-01-15T02:49:32;1.50;;;1.40;;
5833;SDS011;2943;48.012;10.968;2023-01-15T02:52:01;1.47;;;1.10;;
5833;SDS011;2943;48.012;10.968;2023-01-15T02:54:33;1.20;;;1.10;;
5833;SDS011;2943;48.012;10.968;2023-01-15T02:57:05;1.30;;;1.20;;
5833;SDS011;2943;48.012;10.968;2023-01-15T02:59:35;1.77;;;1.47;;
5833;SDS011;2943;48.012;10.968;2023-01-15T03:02:05;1.80;;;1.67;;
5833;SDS011;2943;48.012;10.968;2023-01-15T03:04:36;1.30;;;1.20;;
5833;SDS011;2943;48.012;10.968;2023-01-15T03:07:09;1.60;;;1.40;;
5833;SDS011;2943;48.012;10.968;2023-01-15T03:09:42;1.43;;;1.33;;
5833;SDS011;2943;48.012;10.968;2023-01-15T03:12:12;1.30;;;1.20;;
5833;SDS011;2943;48.012;10.968;2023-01-15T03:14:43;1.17;;;1.10;;
5833;SDS011;2943;48.012;10.968;2023-01-15T03:17:17;1.20;;;1.10;;
5833;SDS011;2943;48.012;10.968;2023-01-15T03:19:47;1.20;;;1.10;;
5833;SDS011;2943;48.012;10.968;2023-01-15T03:22:20;1.60;;;1.37;;
5833;SDS011;2943;48.012;10.968;2023-01-15T03:24:52;4.50;;;1.60;;
5833;SDS011;2943;48.012;10.968;2023-01-15T03:27:22;1.47;;;1.37;;
5833;SDS011;2943;48.012;10.968;2023-01-15T03:29:54;5.47;;;1.10;;
5833;SDS011;2943;48.012;10.968;2023-01-15T03:32:25;1.10;;;1.00;;
5833;SDS011;2943;48.012;10.968;2023-01-15T03:34:55;1.10;;;1.00;;
5833;SDS011;2943;48.012;10.968;2023-01-15T03:37:23;1.23;;;1.20;;
5833;SDS011;2943;48.012;10.968;2023-01-15T03:39:52;0.90;;;0.90;;
5833;SDS011;2943;48.012;10.968;2023-01-15T03:42:24;1.10;;;1.00;;
5833;SDS011;2943;48.012;10.968;2023-01-15T03:45:00;1.83;;;1.20;;
5833;SDS011;2943;48.012;10.968;2023-01-15T03:47:33;1.63;;;1.33;;
5833;SDS011;2943;48.012;10.968;2023-01-15T03:50:12;1.10;;;1.00;;
5833;SDS011;2943;48.012;10.968;2023-01-15T03:52:49;1.10;;;1.00;;
5833;SDS011;2943;48.012;10.968;2023-01-15T03:55:21;1.53;;;1.30;;
5833;SDS011;2943;48.012;10.968;2023-01-15T03:57:55;2.20;;;1.10;;
5833;SDS011;2943;48.012;10.968;2023-01-15T04:00:26;1.20;;;1.10;;
5833;SDS011;2943;48.012;10.968;2023-01-15T04:02:55;1.07;;;1.00;;
5833;SDS011;2943;48.012;10.968;2023-01-15T04:05:23;2.07;;;1.87;;
5833;SDS011;2943;48.012;10.968;2023-01-15T04:07:51;1.33;;;0.90;;
5833;SDS011;2943;48.012;10.968;2023-01-15T04:10:20;1.20;;;1.10;;
5833;SDS011;2943;48.012;10.968;2023-01-15T04:12:47;1.37;;;1.00;;
5833;SDS011;2943;48.012;10.968;2023-01-15T04:15:14;1.70;;;1.20;;
5833;SDS011;2943;48.012;10.968;2023-01-15T04:17:42;1.10;;;0.97;;
5833;SDS011;2943;48.012;10.968;2023-01-15T04:20:10;0.90;;;0.90;;
5833;SDS011;2943;48.012;10.968;2023-01-15T04:22:37;1.13;;;1.00;;
5833;SDS011;2943;48.012;10.968;2023-01-15T04:25:04;1.10;;;1.00;;
5833;SDS011;2943;48.012;10.968;2023-01-15T04:27:32;1.10;;;1.00;;
5833;SDS011;2943;48.012;10.968;2023-01-15T04:29:59;1.10;;;1.00;;
5833;SDS011;2943;48.012;10.968;2023-01-15T04:32:26;1.30;;;1.20;;
5833;SDS011;2943;48.012;10.968;2023-01-15T04:34:54;1.00;;;1.00;;
5833;SDS011;2943;48.012;10.968;2023-01-15T04:37:21;4.20;;;1.00;;
5833;SDS011;2943;48.012;10.968;2023-01-15T04:39:50;1.43;;;1.00;;
5833;SDS011;2943;48.012;10.968;2023-01-15T04:42:17;0.97;;;0.97;;
5833;SDS011;2943;48.012;10.968;2023-01-15T04:45:01;0.90;;;0.90;;
5833;SDS011;2943;48.012;10.968;2023-01-15T04:47:29;1.30;;;1.20;;
5833;SDS011;2943;48.012;10.968;2023-01-15T04:49:57;1.30;;;1.20;;
5833;SDS011;2943;48.012;10.968;2023-01-15T04:52:24;0.97;;;0.97;;
5833;SDS011;2943;48.012;10.968;2023-01-15T04:54:52;1.30;;;0.90;;
5833;SDS011;2943;48.012;10.968;2023-01-15T04:57:19;0.90;;;0.90;;
5833;SDS011;2943;48.012;10.968;2023-01-15T04:59:46;1.20;;;1.10;;
5833;SDS011;2943;48.012;10.968;2023-01-15T05:02:13;1.57;;;0.97;;
5833;SDS011;2943;48.012;10.968;2023-01-15T05:04:40;1.43;;;1.17;;
5833;SDS011;2943;48.012;10.968;2023-01-15T05:07:08;1.10;;;1.00;;
5833;SDS011;2943;48.012;10.968;2023-01-15T05:09:35;0.80;;;0.80;;
5833;SDS011;2943;48.012;10.968;2023-01-15T05:12:02;0.80;;;0.80;;
5833;SDS011;2943;48.012;10.968;2023-01-15T05:14:29;1.10;;;1.00;;
5833;SDS011;2943;48.012;10.968;2023-01-15T05:16:56;1.30;;;1.17;;
5833;SDS011;2943;48.012;10.968;2023-01-15T05:19:23;1.43;;;0.90;;
5833;SDS011;2943;48.012;10.968;2023-01-15T05:21:50;0.90;;;0.90;;
5833;SDS011;2943;48.012;10.968;2023-01-15T05:24:18;1.83;;;0.80;;
5833;SDS011;2943;48.012;10.968;2023-01-15T05:26:44;0.90;;;0.90;;
5833;SDS011;2943;48.012;10.968;2023-01-15T05:29:11;1.37;;;0.90;;
5833;SDS011;2943;48.012;10.968;2023-01-15T05:31:39;1.00;;;1.00;;
5833;SDS011;2943;48.012;10.968;2023-01-15T05:34:09;0.90;;;0.90;;
5833;SDS011;2943;48.012;10.968;2023-01-15T05:36:36;1.10;;;1.00;;
5833;SDS011;2943;48.012;10.968;2023-01-15T05:39:03;0.90;;;0.90;;
5833;SDS011;2943;48.012;10.968;2023-01-15T05:41:32;0.93;;;0.90;;
5833;SDS011;2943;48.012;10.968;2023-01-15T05:44:14;1.43;;;1.00;;
5833;SDS011;2943;48.012;10.968;2023-01-15T05:46:44;0.80;;;0.80;;
5833;SDS011;2943;48.012;10.968;2023-01-15T05:49:12;1.10;;;1.00;;
5833;SDS011;2943;48.012;10.968;2023-01-15T05:51:40;0.90;;;0.90;;
5833;SDS011;2943;48.012;10.968;2023-01-15T05:54:10;0.90;;;0.90;;
5833;SDS011;2943;48.012;10.968;2023-01-15T05:56:39;1.07;;;1.00;;
5833;SDS011;2943;48.012;10.968;2023-01-15T05:59:06;1.33;;;1.10;;
5833;SDS011;2943;48.012;10.968;2023-01-15T06:01:34;0.90;;;0.90;;
5833;SDS011;2943;48.012;10.968;2023-01-15T06:04:02;2.20;;;1.00;;
5833;SDS011;2943;48.012;10.968;2023-01-15T06:06:30;0.90;;;0.90;;
5833;SDS011;2943;48.012;10.968;2023-01-15T06:08:57;1.00;;;0.90;;
5833;SDS011;2943;48.012;10.968;2023-01-15T06:11:25;0.97;;;0.97;;
5833;SDS011;2943;48.012;10.968;2023-01-15T06:13:53;1.10;;;1.00;;
5833;SDS011;2943;48.012;10.968;2023-01-15T06:16:22;1.13;;;0.87;;
5833;SDS011;2943;48.012;10.968;2023-01-15T06:18:52;1.10;;;1.00;;
5833;SDS011;2943;48.012;10.968;2023-01-15T06:21:19;0.90;;;0.90;;
5833;SDS011;2943;48.012;10.968;2023-01-15T06:23:46;0.90;;;0.90;;
5833;SDS011;2943;48.012;10.968;2023-01-15T06:26:14;0.80;;;0.80;;
5833;SDS011;2943;48.012;10.968;2023-01-15T06:28:44;1.07;;;0.97;;
5833;SDS011;2943;48.012;10.968;2023-01-15T06:31:14;1.03;;;0.83;;
5833;SDS011;2943;48.012;10.968;2023-01-15T06:33:42;0.80;;;0.80;;
5833;SDS011;2943;48.012;10.968;2023-01-15T06:36:10;0.80;;;0.80;;
5833;SDS011;2943;48.012;10.968;2023-01-15T06:38:38;0.90;;;0.90;;
5833;SDS011;2943;48.012;10.968;2023-01-15T06:41:08;1.57;;;0.80;;
5833;SDS011;2943;48.012;10.968;2023-01-15T06:43:52;0.97;;;0.90;;
5833;SDS011;2943;48.012;10.968;2023-01-15T06:46:38;0.90;;;0.90;;
5833;SDS011;2943;48.012;10.968;2023-01-15T06:49:25;0.80;;;0.80;;
5833;SDS011;2943;48.012;10.968;2023-01-15T06:51:52;0.80;;;0.80;;
5833;SDS011;2943;48.012;10.968;2023-01-15T06:54:19;0.80;;;0.80;;
5833;SDS011;2943;48.012;10.968;2023-01-15T06:56:46;0.80;;;0.80;;
5833;SDS011;2943;48.012;10.968;2023-01-15T06:59:13;0.80;;;0.80;;
5833;SDS011;2943;48.012;10.968;2023-01-15T07:01:41;1.07;;;0.97;;
5833;SDS011;2943;48.012;10.968;2023-01-15T07:04:08;1.33;;;0.80;;
5833;SDS011;2943;48.012;10.968;2023-01-15T07:06:35;1.10;;;1.00;;
5833;SDS011;2943;48.012;10.968;2023-01-15T07:09:02;0.90;;;0.90;;
5833;SDS011;2943;48.012;10.968;2023-01-15T07:11:30;1.37;;;1.20;;
5833;SDS011;2943;48.012;10.968;2023-01-15T07:13:58;1.00;;;1.00;;
5833;SDS011;2943;48.012;10.968;2023-01-15T07:16:31;2.30;;;1.50;;
5833;SDS011;2943;48.012;10.968;2023-01-15T07:19:02;1.57;;;1.40;;
5833;SDS011;2943;48.012;10.968;2023-01-15T07:21:29;4.80;;;0.93;;
5833;SDS011;2943;48.012;10.968;2023-01-15T07:23:57;1.30;;;1.03;;
5833;SDS011;2943;48.012;10.968;2023-01-15T07:26:25;1.77;;;1.00;;
5833;SDS011;2943;48.012;10.968;2023-01-15T07:28:52;1.20;;;1.10;;
5833;SDS011;2943;48.012;10.968;2023-01-15T07:31:19;1.20;;;1.10;;
5833;SDS011;2943;48.012;10.968;2023-01-15T07:33:46;2.07;;;1.23;;
5833;SDS011;2943;48.012;10.968;2023-01-15T07:36:14;3.37;;;1.03;;
5833;SDS011;2943;48.012;10.968;2023-01-15T07:38:41;1.50;;;1.03;;
5833;SDS011;2943;48.012;10.968;2023-01-15T07:41:08;1.63;;;1.20;;
5833;SDS011;2943;48.012;10.968;2023-01-15T07:43:52;1.20;;;1.10;;
5833;SDS011;2943;48.012;10.968;2023-01-15T07:46:37;1.30;;;1.20;;
5833;SDS011;2943;48.012;10.968;2023-01-15T07:49:21;2.07;;;0.93;;
5833;SDS011;2943;48.012;10.968;2023-01-15T07:52:06;2.10;;;1.10;;
5833;SDS011;2943;48.012;10.968;2023-01-15T07:54:33;1.20;;;1.10;;
5833;SDS011;2943;48.012;10.968;2023-01-15T07:57:00;0.97;;;0.97;;
5833;SDS011;2943;48.012;10.968;2023-01-15T07:59:28;1.70;;;1.17;;
5833;SDS011;2943;48.012;10.968;2023-01-15T08:01:55;1.50;;;1.40;;
5833;SDS011;2943;48.012;10.968;2023-01-15T08:04:22;1.10;;;0.97;;
5833;SDS011;2943;48.012;10.968;2023-01-15T08:06:49;1.27;;;1.17;;
5833;SDS011;2943;48.012;10.968;2023-01-15T08:09:17;1.23;;;1.13;;
5833;SDS011;2943;48.012;10.968;2023-01-15T08:11:44;1.10;;;1.00;;
5833;SDS011;2943;48.012;10.968;2023-01-15T08:14:28;1.60;;;1.50;;
5833;SDS011;2943;48.012;10.968;2023-01-15T08:17:12;1.37;;;1.27;;
5833;SDS011;2943;48.012;10.968;2023-01-15T08:19:39;1.33;;;1.23;;
5833;SDS011;2943;48.012;10.968;2023-01-15T08:22:05;1.47;;;1.33;;
5833;SDS011;2943;48.012;10.968;2023-01-15T08:24:36;2.33;;;1.30;;
5833;SDS011;2943;48.012;10.968;2023-01-15T08:27:05;1.77;;;1.47;;
5833;SDS011;2943;48.012;10.968;2023-01-15T08:29:32;2.60;;;1.80;;
5833;SDS011;2943;48.012;10.968;2023-01-15T08:31:59;1.50;;;1.40;;
5833;SDS011;2943;48.012;10.968;2023-01-15T08:34:26;1.57;;;1.43;;
5833;SDS011;2943;48.012;10.968;2023-01-15T08:36:52;1.23;;;1.13;;
5833;SDS011;2943;48.012;10.968;2023-01-15T08:39:23;1.00;;;1.00;;
5833;SDS011;2943;48.012;10.968;2023-01-15T08:41:52;3.03;;;1.20;;
5833;SDS011;2943;48.012;10.968;2023-01-15T08:44:19;2.83;;;1.07;;
5833;SDS011;2943;48.012;10.968;2023-01-15T08:46:47;1.10;;;1.10;;
5833;SDS011;2943;48.012;10.968;2023-01-15T08:49:16;1.00;;;1.00;;
5833;SDS011;2943;48.012;10.968;2023-01-15T08:51:44;1.40;;;1.30;;
5833;SDS011;2943;48.012;10.968;2023-01-15T08:54:14;1.00;;;0.93;;
5833;SDS011;2943;48.012;10.968;2023-01-15T08:56:41;0.80;;;0.80;;
5833;SDS011;2943;48.012;10.968;2023-01-15T08:59:10;1.10;;;1.00;;
5833;SDS011;2943;48.012;10.968;2023-01-15T09:01:38;1.37;;;1.03;;
5833;SDS011;2943;48.012;10.968;2023-01-15T09:04:06;1.10;;;0.90;;
5833;SDS011;2943;48.012;10.968;2023-01-15T09:06:34;0.90;;;0.90;;
5833;SDS011;2943;48.012;10.968;2023-01-15T09:09:01;1.40;;;1.10;;
5833;SDS011;2943;48.012;10.968;2023-01-15T09:11:28;1.17;;;1.07;;
5833;SDS011;2943;48.012;10.968;2023-01-15T09:13:55;1.90;;;1.07;;
5833;SDS011;2943;48.012;10.968;2023-01-15T09:16:23;1.83;;;1.10;;
5833;SDS011;2943;48.012;10.968;2023-01-15T09:18:51;1.20;;;1.10;;
5833;SDS011;2943;48.012;10.968;2023-01-15T09:21:18;1.20;;;1.10;;
5833;SDS011;2943;48.012;10.968;2023-01-15T09:23:45;0.90;;;0.90;;
5833;SDS011;2943;48.012;10.968;2023-01-15T09:26:26;7.27;;;1.27;;
5833;SDS011;2943;48.012;10.968;2023-01-15T09:28:55;1.10;;;1.00;;
5833;SDS011;2943;48.012;10.968;2023-01-15T09:31:24;1.03;;;0.93;;
5833;SDS011;2943;48.012;10.968;2023-01-15T09:33:52;1.50;;;1.00;;
5833;SDS011;2943;48.012;10.968;2023-01-15T09:36:22;1.10;;;1.00;;
5833;SDS011;2943;48.012;10.968;2023-01-15T09:38:52;1.00;;;0.90;;
5833;SDS011;2943;48.012;10.968;2023-01-15T09:41:20;1.07;;;0.97;;
5833;SDS011;2943;48.012;10.968;2023-01-15T09:44:09;1.33;;;1.20;;
5833;SDS011;2943;48.012;10.968;2023-01-15T09:47:00;1.07;;;0.97;;
5833;SDS011;2943;48.012;10.968;2023-01-15T09:49:42;2.50;;;1.03;;
5833;SDS011;2943;48.012;10.968;2023-01-15T09:52:31;1.30;;;1.10;;
5833;SDS011;2943;48.012;10.968;2023-01-15T09:55:12;1.20;;;1.10;;
5833;SDS011;2943;48.012;10.968;2023-01-15T09:57:41;1.70;;;1.43;;
5833;SDS011;2943;48.012;10.968;2023-01-15T10:00:12;2.07;;;1.73;;
5833;SDS011;2943;48.012;10.968;2023-01-15T10:02:46;1.57;;;1.40;;
5833;SDS011;2943;48.012;10.968;2023-01-15T10:05:16;1.53;;;1.43;;
5833;SDS011;2943;48.012;10.968;2023-01-15T10:07:50;1.17;;;1.07;;
5833;SDS011;2943;48.012;10.968;2023-01-15T10:10:23;1.20;;;1.10;;
5833;SDS011;2943;48.012;10.968;2023-01-15T10:12:58;0.87;;;0.87;;
5833;SDS011;2943;48.012;10.968;2023-01-15T10:15:31;1.40;;;1.10;;
5833;SDS011;2943;48.012;10.968;2023-01-15T10:18:09;2.03;;;1.00;;
5833;SDS011;2943;48.012;10.968;2023-01-15T10:20:47;1.37;;;1.27;;
5833;SDS011;2943;48.012;10.968;2023-01-15T10:23:26;8.70;;;1.30;;
5833;SDS011;2943;48.012;10.968;2023-01-15T10:26:04;1.00;;;1.00;;
5833;SDS011;2943;48.012;10.968;2023-01-15T10:28:47;1.27;;;1.17;;
5833;SDS011;2943;48.012;10.968;2023-01-15T10:31:25;1.40;;;1.30;;
5833;SDS011;2943;48.012;10.968;2023-01-15T10:34:06;1.50;;;1.40;;
5833;SDS011;2943;48.012;10.968;2023-01-15T10:36:57;1.23;;;1.13;;
5833;SDS011;2943;48.012;10.968;2023-01-15T10:39:40;1.40;;;1.30;;
5833;SDS011;2943;48.012;10.968;2023-01-15T10:42:21;1.00;;;1.00;;
5833;SDS011;2943;48.012;10.968;2023-01-15T10:44:58;1.53;;;1.43;;
5833;SDS011;2943;48.012;10.968;2023-01-15T10:47:31;1.13;;;1.03;;
5833;SDS011;2943;48.012;10.968;2023-01-15T10:50:05;1.10;;;1.10;;
5833;SDS011;2943;48.012;10.968;2023-01-15T10:52:42;2.60;;;1.40;;
5833;SDS011;2943;48.012;10.968;2023-01-15T10:55:14;1.50;;;1.40;;
5833;SDS011;2943;48.012;10.968;2023-01-15T10:57:47;1.60;;;1.50;;
5833;SDS011;2943;48.012;10.968;2023-01-15T11:00:18;1.10;;;1.10;;
5833;SDS011;2943;48.012;10.968;2023-01-15T11:02:48;1.90;;;1.43;;
5833;SDS011;2943;48.012;10.968;2023-01-15T11:05:22;1.30;;;1.20;;
5833;SDS011;2943;48.012;10.968;2023-01-15T11:07:51;1.30;;;1.23;;
5833;SDS011;2943;48.012;10.968;2023-01-15T11:10:19;1.30;;;1.20;;
5833;SDS011;2943;48.012;10.968;2023-01-15T11:12:49;1.10;;;1.00;;
5833;SDS011;2943;48.012;10.968;2023-01-15T11:15:35;1.20;;;1.10;;
5833;SDS011;2943;48.012;10.968;2023-01-15T11:18:22;1.20;;;1.10;;
5833;SDS011;2943;48.012;10.968;2023-01-15T11:21:11;5.70;;;1.17;;
5833;SDS011;2943;48.012;10.968;2023-01-15T11:23:40;1.00;;;1.00;;
5833;SDS011;2943;48.012;10.968;2023-01-15T11:26:08;0.90;;;0.90;;
5833;SDS011;2943;48.012;10.968;2023-01-15T11:28:41;1.27;;;1.17;;
5833;SDS011;2943;48.012;10.968;2023-01-15T11:31:10;3.13;;;1.20;;
5833;SDS011;2943;48.012;10.968;2023-01-15T11:33:38;2.10;;;1.00;;
5833;SDS011;2943;48.012;10.968;2023-01-15T11:36:06;2.50;;;1.10;;
5833;SDS011;2943;48.012;10.968;2023-01-15T11:38:46;1.40;;;1.30;;
5833;SDS011;2943;48.012;10.968;2023-01-15T11:41:18;0.90;;;0.90;;
5833;SDS011;2943;48.012;10.968;2023-01-15T11:43:52;1.20;;;1.10;;
5833;SDS011;2943;48.012;10.968;2023-01-15T11:46:38;1.00;;;1.00;;
5833;SDS011;2943;48.012;10.968;2023-01-15T11:49:22;1.30;;;1.10;;
5833;SDS011;2943;48.012;10.968;2023-01-15T11:52:08;1.30;;;1.20;;
5833;SDS011;2943;48.012;10.968;2023-01-15T11:54:40;1.43;;;1.20;;
5833;SDS011;2943;48.012;10.968;2023-01-15T11:57:09;1.30;;;1.30;;
5833;SDS011;2943;48.012;10.968;2023-01-15T11:59:37;2.60;;;1.30;;
5833;SDS011;2943;48.012;10.968;2023-01-15T12:02:10;1.63;;;1.43;;
5833;SDS011;2943;48.012;10.968;2023-01-15T12:04:45;1.10;;;1.00;;
5833;SDS011;2943;48.012;10.968;2023-01-15T12:07:19;1.57;;;1.40;;
5833;SDS011;2943;48.012;10.968;2023-01-15T12:12:45;1.30;;;1.20;;
5833;SDS011;2943;48.012;10.968;2023-01-15T12:15:28;2.27;;;1.20;;
5833;SDS011;2943;48.012;10.968;2023-01-15T12:21:09;1.33;;;1.10;;
5833;SDS011;2943;48.012;10.968;2023-01-15T12:23:50;1.23;;;1.13;;
5833;SDS011;2943;48.012;10.968;2023-01-15T12:26:27;7.10;;;1.50;;
5833;SDS011;2943;48.012;10.968;2023-01-15T12:28:59;1.73;;;1.63;;
5833;SDS011;2943;48.012;10.968;2023-01-15T12:31:32;4.63;;;1.37;;
5833;SDS011;2943;48.012;10.968;2023-01-15T12:34:05;1.33;;;1.27;;
5833;SDS011;2943;48.012;10.968;2023-01-15T12:36:51;1.20;;;1.10;;
5833;SDS011;2943;48.012;10.968;2023-01-15T12:39:26;2.33;;;1.40;;
5833;SDS011;2943;48.012;10.968;2023-01-15T12:41:57;1.40;;;1.30;;
5833;SDS011;2943;48.012;10.968;2023-01-15T12:44:46;1.93;;;1.30;;
5833;SDS011;2943;48.012;10.968;2023-01-15T12:47:34;1.17;;;1.17;;
5833;SDS011;2943;48.012;10.968;2023-01-15T12:50:10;1.10;;;1.00;;
5833;SDS011;2943;48.012;10.968;2023-01-15T12:52:51;1.00;;;1.00;;
5833;SDS011;2943;48.012;10.968;2023-01-15T12:55:24;1.10;;;1.10;;
5833;SDS011;2943;48.012;10.968;2023-01-15T12:57:55;1.47;;;1.10;;
5833;SDS011;2943;48.012;10.968;2023-01-15T13:00:26;1.50;;;1.40;;
5833;SDS011;2943;48.012;10.968;2023-01-15T13:03:01;1.27;;;1.17;;
5833;SDS011;2943;48.012;10.968;2023-01-15T13:05:36;1.30;;;1.20;;
5833;SDS011;2943;48.012;10.968;2023-01-15T13:08:12;1.30;;;1.20;;
5833;SDS011;2943;48.012;10.968;2023-01-15T13:10:45;1.37;;;1.27;;
5833;SDS011;2943;48.012;10.968;2023-01-15T13:16:24;1.30;;;1.20;;
5833;SDS011;2943;48.012;10.968;2023-01-15T13:19:02;2.50;;;2.30;;
5833;SDS011;2943;48.012;10.968;2023-01-15T13:21:42;2.30;;;1.73;;
5833;SDS011;2943;48.012;10.968;2023-01-15T13:24:15;2.40;;;2.17;;
5833;SDS011;2943;48.012;10.968;2023-01-15T13:26:59;2.93;;;2.00;;
5833;SDS011;2943;48.012;10.968;2023-01-15T13:29:39;1.63;;;1.50;;
5833;SDS011;2943;48.012;10.968;2023-01-15T13:32:16;2.10;;;2.00;;
5833;SDS011;2943;48.012;10.968;2023-01-15T13:34:48;3.20;;;2.10;;
5833;SDS011;2943;48.012;10.968;2023-01-15T13:37:21;2.38;;;1.55;;
5833;SDS011;2943;48.012;10.968;2023-01-15T13:39:52;1.50;;;1.40;;
5833;SDS011;2943;48.012;10.968;2023-01-15T13:42:22;1.60;;;1.50;;
5833;SDS011;2943;48.012;10.968;2023-01-15T13:44:57;1.83;;;1.50;;
5833;SDS011;2943;48.012;10.968;2023-01-15T13:47:32;1.40;;;1.30;;
5833;SDS011;2943;48.012;10.968;2023-01-15T13:50:02;2.30;;;2.20;;
5833;SDS011;2943;48.012;10.968;2023-01-15T13:52:32;3.03;;;2.10;;
5833;SDS011;2943;48.012;10.968;2023-01-15T13:55:07;1.47;;;1.37;;
5833;SDS011;2943;48.012;10.968;2023-01-15T13:57:40;1.70;;;1.60;;
5833;SDS011;2943;48.012;10.968;2023-01-15T14:02:57;1.70;;;1.60;;
5833;SDS011;2943;48.012;10.968;2023-01-15T14:05:26;1.70;;;1.60;;
5833;SDS011;2943;48.012;10.968;2023-01-15T14:07:56;1.30;;;1.20;;
5833;SDS011;2943;48.012;10.968;2023-01-15T14:10:31;2.17;;;2.07;;
5833;SDS011;2943;48.012;10.968;2023-01-15T14:15:55;2.00;;;1.90;;
5833;SDS011;2943;48.012;10.968;2023-01-15T14:18:41;2.03;;;1.93;;
5833;SDS011;2943;48.012;10.968;2023-01-15T14:21:24;1.30;;;1.20;;
5833;SDS011;2943;48.012;10.968;2023-01-15T14:24:00;1.60;;;1.50;;
5833;SDS011;2943;48.012;10.968;2023-01-15T14:26:44;1.40;;;1.30;;
5833;SDS011;2943;48.012;10.968;2023-01-15T14:32:35;1.60;;;1.50;;
5833;SDS011;2943;48.012;10.968;2023-01-15T14:35:13;1.50;;;1.40;;
5833;SDS011;2943;48.012;10.968;2023-01-15T14:37:45;1.97;;;1.77;;
5833;SDS011;2943;48.012;10.968;2023-01-15T14:40:19;1.50;;;1.40;;
5833;SDS011;2943;48.012;10.968;2023-01-15T14:42:48;1.80;;;1.70;;
5833;SDS011;2943;48.012;10.968;2023-01-15T14:45:29;1.80;;;1.70;;
5833;SDS011;2943;48.012;10.968;2023-01-15T14:48:00;1.60;;;1.50;;
5833;SDS011;2943;48.012;10.968;2023-01-15T14:50:34;1.90;;;1.80;;
5833;SDS011;2943;48.012;10.968;2023-01-15T14:56:09;1.40;;;1.30;;
5833;SDS011;2943;48.012;10.968;2023-01-15T14:58:53;1.60;;;1.50;;
5833;SDS011;2943;48.012;10.968;2023-01-15T15:01:34;1.60;;;1.50;;
5833;SDS011;2943;48.012;10.968;2023-01-15T15:04:04;1.77;;;1.67;;
5833;SDS011;2943;48.012;10.968;2023-01-15T15:06:50;3.90;;;3.60;;
5833;SDS011;2943;48.012;10.968;2023-01-15T15:09:25;1.60;;;1.50;;
5833;SDS011;2943;48.012;10.968;2023-01-15T15:11:57;1.30;;;1.30;;
5833;SDS011;2943;48.012;10.968;2023-01-15T15:14:45;1.60;;;1.50;;
5833;SDS011;2943;48.012;10.968;2023-01-15T15:17:18;1.60;;;1.50;;
5833;SDS011;2943;48.012;10.968;2023-01-15T15:19:52;1.40;;;1.30;;
5833;SDS011;2943;48.012;10.968;2023-01-15T15:22:27;1.93;;;1.83;;
5833;SDS011;2943;48.012;10.968;2023-01-15T15:24:56;2.03;;;1.93;;
5833;SDS011;2943;48.012;10.968;2023-01-15T15:27:31;1.60;;;1.50;;
5833;SDS011;2943;48.012;10.968;2023-01-15T15:30:04;2.20;;;1.50;;
5833;SDS011;2943;48.012;10.968;2023-01-15T15:32:33;1.77;;;1.67;;
5833;SDS011;2943;48.012;10.968;2023-01-15T15:35:04;1.70;;;1.60;;
5833;SDS011;2943;48.012;10.968;2023-01-15T15:37:43;1.97;;;1.77;;
5833;SDS011;2943;48.012;10.968;2023-01-15T15:40:13;2.43;;;1.60;;
5833;SDS011;2943;48.012;10.968;2023-01-15T15:42:44;2.27;;;2.07;;
5833;SDS011;2943;48.012;10.968;2023-01-15T15:45:33;1.80;;;1.70;;
5833;SDS011;2943;48.012;10.968;2023-01-15T15:48:17;2.57;;;2.20;;
5833;SDS011;2943;48.012;10.968;2023-01-15T15:51:04;5.03;;;2.90;;
5833;SDS011;2943;48.012;10.968;2023-01-15T15:53:49;4.60;;;3.10;;
5833;SDS011;2943;48.012;10.968;2023-01-15T15:56:16;3.30;;;2.40;;